Terri L. Brusco — WDC3034 — position and weather

sailwx.info

Track history (hours):
 
Tides and Currents Weather Stations Pressure Air Temp Water Temp Dewpoint Dewpoint Depression Visibility Wind Speed Wind Dir Waves Ship Positions

Terri L. Brusco

Owner: Brusco Tug & Barge, Inc., Longview, WA. More information available from US FCC via Universal Licensing System and Coast Guard Vessel Documentation Center.

Last reported at 2014-Oct-25 03:33 UTC. Time now 2014-Oct-25 04:20 UTC.
Position N 37°55' W 122°25'.

Length 21 m; draft 3 m.

Type: Tug. MMSI: 367001830.

Date/timePositionNaut miles runAvg speedWind from/ knotsBaromVisibWave heightAir tempDewpointWater temp
2014-Oct-25 03:33N 37°55' W 122°25'0 0.1
2014-Oct-25 02:33N 37°55' W 122°25'1 1.4
2014-Oct-25 01:33N 37°53' W 122°25'4 3.9
2014-Oct-25 00:33N 37°50' W 122°26'6 5.8
2014-Oct-24 23:33N 37°55' W 122°24'4 3.8
2014-Oct-24 22:33N 37°59' W 122°27'1 0.7
2014-Oct-24 21:33N 37°59' W 122°27'0 0.0
2014-Oct-24 20:33N 37°59' W 122°27'0 0.0
2014-Oct-24 19:33N 37°59' W 122°27'0 0.0
2014-Oct-24 18:33N 37°59' W 122°27'5 4.5
2014-Oct-24 17:33N 37°55' W 122°24'4 4.3
2014-Oct-24 16:33N 37°59' W 122°27'3 3.0
2014-Oct-24 15:33N 37°56' W 122°26'3 3.2
2014-Oct-24 14:33N 37°59' W 122°27'0 0.1
2014-Oct-24 13:33N 37°59' W 122°27'0 0.0
2014-Oct-24 12:33N 37°59' W 122°27'0 0.0
2014-Oct-24 11:33N 37°59' W 122°27'0 0.0
2014-Oct-24 10:33N 37°59' W 122°27'0 0.0
2014-Oct-24 09:33N 37°59' W 122°27'0 0.0
2014-Oct-24 08:33N 37°59' W 122°27'0 0.0
2014-Oct-24 07:33N 37°59' W 122°27'0 0.0
2014-Oct-24 06:33N 37°59' W 122°27'0 0.0
2014-Oct-24 05:33N 37°59' W 122°27'6 6.3
2014-Oct-24 04:33N 37°54' W 122°22'2 2.2
2014-Oct-24 03:33N 37°55' W 122°24'0 0.1
2014-Oct-24 02:33N 37°55' W 122°24'0 0.0
2014-Oct-24 01:33N 37°55' W 122°24'0 0.0
2014-Oct-24 00:33N 37°55' W 122°24'0 0.1
2014-Oct-23 23:33N 37°55' W 122°24'3 3.0
2014-Oct-23 22:33N 37°58' W 122°26'2 1.5
2014-Oct-23 21:33N 37°59' W 122°27'0 0.0
2014-Oct-23 20:33N 37°59' W 122°27'0 0.0
2014-Oct-23 19:33N 37°59' W 122°27'3 2.6
2014-Oct-23 18:33N 37°57' W 122°26'1 0.6
2014-Oct-23 17:33N 37°57' W 122°26'2 1.9
2014-Oct-23 16:33N 37°59' W 122°27'0 0.0
2014-Oct-23 15:30N 37°59' W 122°27'0 0.0
2014-Oct-23 14:30N 37°59' W 122°27'0 0.0
2014-Oct-23 13:33N 37°59' W 122°27'0 0.0
2014-Oct-23 12:31N 37°59' W 122°27'0 0.0
2014-Oct-23 11:33N 37°59' W 122°27'0 0.0
2014-Oct-23 10:33N 37°59' W 122°27'0 0.0
2014-Oct-23 09:33N 37°59' W 122°27'0 0.0
2014-Oct-23 08:33N 37°59' W 122°27'0 0.0
2014-Oct-23 07:33N 37°59' W 122°27'0 0.0
2014-Oct-23 06:11N 37°59' W 122°27'0 0.0
2014-Oct-23 05:33N 37°59' W 122°27'3 3.0
2014-Oct-23 04:33N 37°56' W 122°26'0 0.3
2014-Oct-23 03:33N 37°57' W 122°26'6 4.9
2014-Oct-23 02:25N 38°01' W 122°22'5 5.9
2014-Oct-23 01:31N 38°04' W 122°16'0 0.1
2014-Oct-23 00:31N 38°03' W 122°16'7 6.6
2014-Oct-22 23:32N 38°01' W 122°23'6 6.7
2014-Oct-22 22:33N 37°54' W 122°23'0 0.1
2014-Oct-22 21:33N 37°54' W 122°23'0 0.5
2014-Oct-22 20:33N 37°54' W 122°22'0 0.0
2014-Oct-22 19:33N 37°54' W 122°22'5 5.1
2014-Oct-22 18:33N 37°58' W 122°26'2 2.1
2014-Oct-22 17:32N 38°00' W 122°25'8 7.7
2014-Oct-22 16:31N 38°04' W 122°16'17 3.3
2014-Oct-22 11:22N 38°03' W 121°54'13 4.1
2014-Oct-22 08:13N 38°03' W 122°11'6 6.3
2014-Oct-22 07:19N 38°03' W 122°18'5 6.3
2014-Oct-22 06:33N 38°01' W 122°23'5 5.3
2014-Oct-22 05:33N 37°56' W 122°25'4 3.6
2014-Oct-22 04:33N 37°59' W 122°26'0 0.0
2014-Oct-22 03:32N 37°59' W 122°26'0 0.1
2014-Oct-22 02:33N 37°59' W 122°26'0 0.1
2014-Oct-22 01:33N 37°59' W 122°26'0 0.0
2014-Oct-22 00:33N 37°59' W 122°26'0 0.0
2014-Oct-21 23:33N 37°59' W 122°26'1 1.3
2014-Oct-21 22:33N 37°60' W 122°25'10 9.4
2014-Oct-21 21:32N 38°04' W 122°14'2 0.3
2014-Oct-21 15:33N 38°03' W 122°12'7 6.5
2014-Oct-21 14:30N 38°02' W 122°20'6 6.0
2014-Oct-21 13:33N 37°59' W 122°26'0 0.1
2014-Oct-21 12:33N 37°59' W 122°27'0 0.1
2014-Oct-21 11:33N 37°59' W 122°27'9 7.9
2014-Oct-21 10:23N 38°03' W 122°16'4 0.6
2014-Oct-21 03:26N 38°03' W 122°11'6 6.1
2014-Oct-21 02:32N 38°03' W 122°18'6 6.4
2014-Oct-21 01:33N 37°59' W 122°25'3 3.1
2014-Oct-21 00:33N 37°56' W 122°26'3 2.9
2014-Oct-20 23:33N 37°59' W 122°27'0 0.0
2014-Oct-20 22:33N 37°59' W 122°27'0 0.0
2014-Oct-20 21:33N 37°59' W 122°27'0 0.0
2014-Oct-20 20:33N 37°59' W 122°27'0 0.0
2014-Oct-20 19:33N 37°59' W 122°27'0 0.1
2014-Oct-20 18:22N 37°59' W 122°27'0 0.1
2014-Oct-20 17:33N 37°59' W 122°27'0 0.0
2014-Oct-20 16:20N 37°59' W 122°27'0 0.3
2014-Oct-20 15:29N 37°59' W 122°27'1 1.1
2014-Oct-20 14:33N 37°58' W 122°26'1 0.6
2014-Oct-20 13:32N 37°59' W 122°27'0 0.1
2014-Oct-20 12:33N 37°59' W 122°27'0 0.0
2014-Oct-20 11:33N 37°59' W 122°27'0 0.0
2014-Oct-20 10:33N 37°59' W 122°27'0 0.0
2014-Oct-20 09:33N 37°59' W 122°27'0 0.0
2014-Oct-20 08:33N 37°59' W 122°27'0 0.0
2014-Oct-20 07:33N 37°59' W 122°27'0 0.1
2014-Oct-20 06:33N 37°59' W 122°27'0 0.0
2014-Oct-20 05:33N 37°59' W 122°27'0 0.0
2014-Oct-20 04:33N 37°59' W 122°27'0 0.0
2014-Oct-20 03:33N 37°59' W 122°27'0 0.0
2014-Oct-20 02:33N 37°59' W 122°27'0 0.0
2014-Oct-20 01:32N 37°59' W 122°27'0 0.0
2014-Oct-20 00:33N 37°59' W 122°27'0 0.1
2014-Oct-19 23:33N 37°59' W 122°27'0 0.0
2014-Oct-19 22:33N 37°59' W 122°27'0 0.0
2014-Oct-19 21:33N 37°59' W 122°27'0 0.0
2014-Oct-19 20:33N 37°59' W 122°27'0 0.1
2014-Oct-19 19:33N 37°59' W 122°27'10 7.2
2014-Oct-19 18:06N 38°04' W 122°15'3 6.1
2014-Oct-19 17:33N 38°03' W 122°11'2 0.3
2014-Oct-19 09:33N 38°04' W 122°14'6 5.2
2014-Oct-19 08:26N 38°02' W 122°21'5 5.3
2014-Oct-19 07:33N 37°59' W 122°25'3 3.4
2014-Oct-19 06:33N 37°56' W 122°25'0 0.4
2014-Oct-19 05:33N 37°55' W 122°25'0 0.0
2014-Oct-19 04:33N 37°55' W 122°25'0 0.0
2014-Oct-19 03:33N 37°55' W 122°25'0 0.0
2014-Oct-19 02:33N 37°55' W 122°25'0 0.0
2014-Oct-19 01:33N 37°55' W 122°25'0 0.0
2014-Oct-19 00:33N 37°55' W 122°25'0 0.0
2014-Oct-18 23:33N 37°55' W 122°25'0 0.0
2014-Oct-18 22:33N 37°55' W 122°25'0 0.0
2014-Oct-18 21:33N 37°55' W 122°25'0 0.0
2014-Oct-18 20:33N 37°55' W 122°25'0 0.0
2014-Oct-18 19:34N 37°55' W 122°24'1 1.1
2014-Oct-18 18:33N 37°56' W 122°26'3 3.2
2014-Oct-18 17:33N 37°59' W 122°26'0 0.0
2014-Oct-18 16:28N 37°59' W 122°26'0 0.0
2014-Oct-18 15:33N 37°59' W 122°26'0 0.0
2014-Oct-18 14:32N 37°59' W 122°26'0 0.0
2014-Oct-18 13:33N 37°59' W 122°26'0 0.1
2014-Oct-18 12:28N 37°59' W 122°26'0 0.0
2014-Oct-18 10:22N 37°59' W 122°26'4 4.7
2014-Oct-18 09:33N 38°01' W 122°23'9 1.1
2014-Oct-18 01:33N 38°03' W 122°12'7 6.2
2014-Oct-18 00:28N 38°02' W 122°20'6 5.8
2014-Oct-17 23:30N 37°59' W 122°25'9 9.2
2014-Oct-17 22:33N 37°50' W 122°22'4 4.3
2014-Oct-17 21:34N 37°48' W 122°18'2 1.8
2014-Oct-17 20:33N 37°49' W 122°19'0 0.0
2014-Oct-17 19:33N 37°49' W 122°19'0 0.0
2014-Oct-17 18:34N 37°49' W 122°19'0 0.1
2014-Oct-17 17:33N 37°49' W 122°19'7 6.8
2014-Oct-17 16:33N 37°50' W 122°27'1010.2
2014-Oct-17 15:34N 37°47' W 122°40'1110.5
2014-Oct-17 14:33N 37°52' W 122°52'1010.2
2014-Oct-17 13:34N 37°57' W 123°03'1010.1
2014-Oct-17 12:33N 38°04' W 123°12'1010.0
2014-Oct-17 11:33N 38°12' W 123°20'1010.1
2014-Oct-17 10:33N 38°21' W 123°26'1310.2
2014-Oct-17 09:20N 38°32' W 123°34'8 9.9
2014-Oct-17 08:28N 38°39' W 123°39'  
Track history (hours):
 
Tides and Currents Weather Stations Pressure Air Temp Water Temp Dewpoint Dewpoint Depression Visibility Wind Speed Wind Dir Waves Ship Positions

Terri L. Brusco

Owner: Brusco Tug & Barge, Inc., Longview, WA. More information available from US FCC via Universal Licensing System and Coast Guard Vessel Documentation Center.

Last reported at 2014-Oct-25 03:33 UTC. Time now 2014-Oct-25 04:20 UTC.
Position N 37°55' W 122°25'.

Length 21 m; draft 3 m.

Type: Tug. MMSI: 367001830.

Date/timePositionNaut miles runAvg speedWind from/ knotsBaromVisibWave heightAir tempDewpointWater temp
2014-Oct-25 03:33N 37°55' W 122°25'0 0.1
2014-Oct-25 02:33N 37°55' W 122°25'1 1.4
2014-Oct-25 01:33N 37°53' W 122°25'4 3.9
2014-Oct-25 00:33N 37°50' W 122°26'6 5.8
2014-Oct-24 23:33N 37°55' W 122°24'4 3.8
2014-Oct-24 22:33N 37°59' W 122°27'1 0.7
2014-Oct-24 21:33N 37°59' W 122°27'0 0.0
2014-Oct-24 20:33N 37°59' W 122°27'0 0.0
2014-Oct-24 19:33N 37°59' W 122°27'0 0.0
2014-Oct-24 18:33N 37°59' W 122°27'5 4.5
2014-Oct-24 17:33N 37°55' W 122°24'4 4.3
2014-Oct-24 16:33N 37°59' W 122°27'3 3.0
2014-Oct-24 15:33N 37°56' W 122°26'3 3.2
2014-Oct-24 14:33N 37°59' W 122°27'0 0.1
2014-Oct-24 13:33N 37°59' W 122°27'0 0.0
2014-Oct-24 12:33N 37°59' W 122°27'0 0.0
2014-Oct-24 11:33N 37°59' W 122°27'0 0.0
2014-Oct-24 10:33N 37°59' W 122°27'0 0.0
2014-Oct-24 09:33N 37°59' W 122°27'0 0.0
2014-Oct-24 08:33N 37°59' W 122°27'0 0.0
2014-Oct-24 07:33N 37°59' W 122°27'0 0.0
2014-Oct-24 06:33N 37°59' W 122°27'0 0.0
2014-Oct-24 05:33N 37°59' W 122°27'6 6.3
2014-Oct-24 04:33N 37°54' W 122°22'2 2.2
2014-Oct-24 03:33N 37°55' W 122°24'0 0.1
2014-Oct-24 02:33N 37°55' W 122°24'0 0.0
2014-Oct-24 01:33N 37°55' W 122°24'0 0.0
2014-Oct-24 00:33N 37°55' W 122°24'0 0.1
2014-Oct-23 23:33N 37°55' W 122°24'3 3.0
2014-Oct-23 22:33N 37°58' W 122°26'2 1.5
2014-Oct-23 21:33N 37°59' W 122°27'0 0.0
2014-Oct-23 20:33N 37°59' W 122°27'0 0.0
2014-Oct-23 19:33N 37°59' W 122°27'3 2.6
2014-Oct-23 18:33N 37°57' W 122°26'1 0.6
2014-Oct-23 17:33N 37°57' W 122°26'2 1.9
2014-Oct-23 16:33N 37°59' W 122°27'0 0.0
2014-Oct-23 15:30N 37°59' W 122°27'0 0.0
2014-Oct-23 14:30N 37°59' W 122°27'0 0.0
2014-Oct-23 13:33N 37°59' W 122°27'0 0.0
2014-Oct-23 12:31N 37°59' W 122°27'0 0.0
2014-Oct-23 11:33N 37°59' W 122°27'0 0.0
2014-Oct-23 10:33N 37°59' W 122°27'0 0.0
2014-Oct-23 09:33N 37°59' W 122°27'0 0.0
2014-Oct-23 08:33N 37°59' W 122°27'0 0.0
2014-Oct-23 07:33N 37°59' W 122°27'0 0.0
2014-Oct-23 06:11N 37°59' W 122°27'0 0.0
2014-Oct-23 05:33N 37°59' W 122°27'3 3.0
2014-Oct-23 04:33N 37°56' W 122°26'0 0.3
2014-Oct-23 03:33N 37°57' W 122°26'6 4.9
2014-Oct-23 02:25N 38°01' W 122°22'5 5.9
2014-Oct-23 01:31N 38°04' W 122°16'0 0.1
2014-Oct-23 00:31N 38°03' W 122°16'7 6.6
2014-Oct-22 23:32N 38°01' W 122°23'6 6.7
2014-Oct-22 22:33N 37°54' W 122°23'0 0.1
2014-Oct-22 21:33N 37°54' W 122°23'0 0.5
2014-Oct-22 20:33N 37°54' W 122°22'0 0.0
2014-Oct-22 19:33N 37°54' W 122°22'5 5.1
2014-Oct-22 18:33N 37°58' W 122°26'2 2.1
2014-Oct-22 17:32N 38°00' W 122°25'8 7.7
2014-Oct-22 16:31N 38°04' W 122°16'17 3.3
2014-Oct-22 11:22N 38°03' W 121°54'13 4.1
2014-Oct-22 08:13N 38°03' W 122°11'6 6.3
2014-Oct-22 07:19N 38°03' W 122°18'5 6.3
2014-Oct-22 06:33N 38°01' W 122°23'5 5.3
2014-Oct-22 05:33N 37°56' W 122°25'4 3.6
2014-Oct-22 04:33N 37°59' W 122°26'0 0.0
2014-Oct-22 03:32N 37°59' W 122°26'0 0.1
2014-Oct-22 02:33N 37°59' W 122°26'0 0.1
2014-Oct-22 01:33N 37°59' W 122°26'0 0.0
2014-Oct-22 00:33N 37°59' W 122°26'0 0.0
2014-Oct-21 23:33N 37°59' W 122°26'1 1.3
2014-Oct-21 22:33N 37°60' W 122°25'10 9.4
2014-Oct-21 21:32N 38°04' W 122°14'2 0.3
2014-Oct-21 15:33N 38°03' W 122°12'7 6.5
2014-Oct-21 14:30N 38°02' W 122°20'6 6.0
2014-Oct-21 13:33N 37°59' W 122°26'0 0.1
2014-Oct-21 12:33N 37°59' W 122°27'0 0.1
2014-Oct-21 11:33N 37°59' W 122°27'9 7.9
2014-Oct-21 10:23N 38°03' W 122°16'4 0.6
2014-Oct-21 03:26N 38°03' W 122°11'6 6.1
2014-Oct-21 02:32N 38°03' W 122°18'6 6.4
2014-Oct-21 01:33N 37°59' W 122°25'3 3.1
2014-Oct-21 00:33N 37°56' W 122°26'3 2.9
2014-Oct-20 23:33N 37°59' W 122°27'0 0.0
2014-Oct-20 22:33N 37°59' W 122°27'0 0.0
2014-Oct-20 21:33N 37°59' W 122°27'0 0.0
2014-Oct-20 20:33N 37°59' W 122°27'0 0.0
2014-Oct-20 19:33N 37°59' W 122°27'0 0.1
2014-Oct-20 18:22N 37°59' W 122°27'0 0.1
2014-Oct-20 17:33N 37°59' W 122°27'0 0.0
2014-Oct-20 16:20N 37°59' W 122°27'0 0.3
2014-Oct-20 15:29N 37°59' W 122°27'1 1.1
2014-Oct-20 14:33N 37°58' W 122°26'1 0.6
2014-Oct-20 13:32N 37°59' W 122°27'0 0.1
2014-Oct-20 12:33N 37°59' W 122°27'0 0.0
2014-Oct-20 11:33N 37°59' W 122°27'0 0.0
2014-Oct-20 10:33N 37°59' W 122°27'0 0.0
2014-Oct-20 09:33N 37°59' W 122°27'0 0.0
2014-Oct-20 08:33N 37°59' W 122°27'0 0.0
2014-Oct-20 07:33N 37°59' W 122°27'0 0.1
2014-Oct-20 06:33N 37°59' W 122°27'0 0.0
2014-Oct-20 05:33N 37°59' W 122°27'0 0.0
2014-Oct-20 04:33N 37°59' W 122°27'0 0.0
2014-Oct-20 03:33N 37°59' W 122°27'0 0.0
2014-Oct-20 02:33N 37°59' W 122°27'0 0.0
2014-Oct-20 01:32N 37°59' W 122°27'0 0.0
2014-Oct-20 00:33N 37°59' W 122°27'0 0.1
2014-Oct-19 23:33N 37°59' W 122°27'0 0.0
2014-Oct-19 22:33N 37°59' W 122°27'0 0.0
2014-Oct-19 21:33N 37°59' W 122°27'0 0.0
2014-Oct-19 20:33N 37°59' W 122°27'0 0.1
2014-Oct-19 19:33N 37°59' W 122°27'10 7.2
2014-Oct-19 18:06N 38°04' W 122°15'3 6.1
2014-Oct-19 17:33N 38°03' W 122°11'2 0.3
2014-Oct-19 09:33N 38°04' W 122°14'6 5.2
2014-Oct-19 08:26N 38°02' W 122°21'5 5.3
2014-Oct-19 07:33N 37°59' W 122°25'3 3.4
2014-Oct-19 06:33N 37°56' W 122°25'0 0.4
2014-Oct-19 05:33N 37°55' W 122°25'0 0.0
2014-Oct-19 04:33N 37°55' W 122°25'0 0.0
2014-Oct-19 03:33N 37°55' W 122°25'0 0.0
2014-Oct-19 02:33N 37°55' W 122°25'0 0.0
2014-Oct-19 01:33N 37°55' W 122°25'0 0.0
2014-Oct-19 00:33N 37°55' W 122°25'0 0.0
2014-Oct-18 23:33N 37°55' W 122°25'0 0.0
2014-Oct-18 22:33N 37°55' W 122°25'0 0.0
2014-Oct-18 21:33N 37°55' W 122°25'0 0.0
2014-Oct-18 20:33N 37°55' W 122°25'0 0.0
2014-Oct-18 19:34N 37°55' W 122°24'1 1.1
2014-Oct-18 18:33N 37°56' W 122°26'3 3.2
2014-Oct-18 17:33N 37°59' W 122°26'0 0.0
2014-Oct-18 16:28N 37°59' W 122°26'0 0.0
2014-Oct-18 15:33N 37°59' W 122°26'0 0.0
2014-Oct-18 14:32N 37°59' W 122°26'0 0.0
2014-Oct-18 13:33N 37°59' W 122°26'0 0.1
2014-Oct-18 12:28N 37°59' W 122°26'0 0.0
2014-Oct-18 10:22N 37°59' W 122°26'4 4.7
2014-Oct-18 09:33N 38°01' W 122°23'9 1.1
2014-Oct-18 01:33N 38°03' W 122°12'7 6.2
2014-Oct-18 00:28N 38°02' W 122°20'6 5.8
2014-Oct-17 23:30N 37°59' W 122°25'9 9.2
2014-Oct-17 22:33N 37°50' W 122°22'4 4.3
2014-Oct-17 21:34N 37°48' W 122°18'2 1.8
2014-Oct-17 20:33N 37°49' W 122°19'0 0.0
2014-Oct-17 19:33N 37°49' W 122°19'0 0.0
2014-Oct-17 18:34N 37°49' W 122°19'0 0.1
2014-Oct-17 17:33N 37°49' W 122°19'7 6.8
2014-Oct-17 16:33N 37°50' W 122°27'1010.2
2014-Oct-17 15:34N 37°47' W 122°40'1110.5
2014-Oct-17 14:33N 37°52' W 122°52'1010.2
2014-Oct-17 13:34N 37°57' W 123°03'1010.1
2014-Oct-17 12:33N 38°04' W 123°12'1010.0
2014-Oct-17 11:33N 38°12' W 123°20'1010.1
2014-Oct-17 10:33N 38°21' W 123°26'1310.2
2014-Oct-17 09:20N 38°32' W 123°34'8 9.9
2014-Oct-17 08:28N 38°39' W 123°39'  

Dump ship's entire track history